createdAt,value
2018-04-23T00:00:20.066Z,15.65
2018-04-23T00:06:10.949Z,21.36
2018-04-23T00:12:01.765Z,16.5
2018-04-23T00:17:52.634Z,20.48
2018-04-23T00:23:43.474Z,19.64
2018-04-23T00:29:34.317Z,17.55
2018-04-23T00:35:25.175Z,19.3
2018-04-23T00:41:15.984Z,16.86
2018-04-23T00:47:06.878Z,14.46
2018-04-23T00:52:57.699Z,17.41
2018-04-23T00:58:48.515Z,17.88
2018-04-23T01:04:39.347Z,12.65
2018-04-23T01:10:30.205Z,15.48
2018-04-23T01:16:21.084Z,14.5
2018-04-23T01:22:11.881Z,16.25
2018-04-23T01:28:02.682Z,13.85
2018-04-23T01:33:53.596Z,18.31
2018-04-23T01:39:44.359Z,15.95
2018-04-23T01:45:35.214Z,19.88
2018-04-23T01:51:26.019Z,18.96
2018-04-23T01:57:16.827Z,21.23
2018-04-23T02:03:07.675Z,20.04
2018-04-23T02:08:58.573Z,19.99
2018-04-23T02:14:49.545Z,17.3
2018-04-23T02:20:40.147Z,20.17
2018-04-23T02:26:31.055Z,23.38
2018-04-23T02:32:21.828Z,19.75
2018-04-23T02:38:12.657Z,25.2
2018-04-23T02:44:03.478Z,23.46
2018-04-23T02:49:54.352Z,25.83
2018-04-23T02:55:45.123Z,24.14
2018-04-23T03:01:36.003Z,24.71
2018-04-23T03:07:26.815Z,28.02
2018-04-23T03:13:17.606Z,20.55
2018-04-23T03:19:08.465Z,25.97
2018-04-23T03:24:59.313Z,24.95
2018-04-23T03:30:50.130Z,25.1
2018-04-23T03:36:40.983Z,26.29
2018-04-23T03:42:31.794Z,25.97
2018-04-23T03:48:22.650Z,25.98
2018-04-23T03:54:13.383Z,28.54
2018-04-23T04:00:04.286Z,23.49
2018-04-23T04:05:55.064Z,27.59
2018-04-23T04:11:45.862Z,27.85
2018-04-23T04:17:36.699Z,26.05
2018-04-23T04:23:27.586Z,29.3
2018-04-23T04:29:18.307Z,22.31
2018-04-23T04:35:09.165Z,23.34
2018-04-23T04:41:00.066Z,23.46
2018-04-23T04:46:50.820Z,27.09
2018-04-23T04:52:41.620Z,23.4
2018-04-23T04:58:32.437Z,20.36
2018-04-23T05:04:23.309Z,24.02
2018-04-23T05:10:14.084Z,20.9
2018-04-23T05:16:04.948Z,22.31
2018-04-23T05:21:55.734Z,25.9
2018-04-23T05:27:46.533Z,21.63
2018-04-23T05:33:37.400Z,23.56
2018-04-23T05:39:28.228Z,21.76
2018-04-23T05:45:19.056Z,30.97
2018-04-23T05:51:09.805Z,22.16
2018-04-23T05:57:00.654Z,25.3
2018-04-23T06:02:51.527Z,29.94
2018-04-23T06:08:42.307Z,25.13
2018-04-23T06:14:33.243Z,24.74
2018-04-23T06:20:23.983Z,23.48
2018-04-23T06:26:14.825Z,24.09
2018-04-23T06:32:05.674Z,24.71
2018-04-23T06:37:56.505Z,26.31
2018-04-23T06:43:47.350Z,29.55
2018-04-23T06:49:38.197Z,20.94
2018-04-23T06:55:29.013Z,29.6
2018-04-23T07:01:19.870Z,29.42
2018-04-23T07:07:10.727Z,27.87
2018-04-23T07:13:01.507Z,28.4
2018-04-23T07:18:52.431Z,25.41
2018-04-23T07:24:43.187Z,27.13
2018-04-23T07:30:34.103Z,39.54
2018-04-23T07:36:24.934Z,41.2
2018-04-23T07:42:15.786Z,39.32
2018-04-23T07:48:06.626Z,40.95
2018-04-23T07:53:57.538Z,37.82
2018-04-23T07:59:48.313Z,30.74
2018-04-23T08:05:39.242Z,43.2
2018-04-23T08:11:30.047Z,47.24
2018-04-23T08:17:20.912Z,32.18
2018-04-23T08:23:11.831Z,30.76
2018-04-23T08:29:02.629Z,24.38
2018-04-23T08:34:53.509Z,23.87
2018-04-23T08:40:44.374Z,75.99
2018-04-23T08:46:35.287Z,27.14
2018-04-23T08:52:26.172Z,21.85
2018-04-23T08:58:17.040Z,24
2018-04-23T09:04:07.987Z,20.04
2018-04-23T09:09:58.819Z,26.5
2018-04-23T09:15:49.710Z,17.45
2018-04-23T09:21:40.634Z,18.33
2018-04-23T09:27:31.544Z,19.6
2018-04-23T09:33:22.481Z,18.24
2018-04-23T09:39:13.287Z,23.41
2018-04-23T09:45:04.105Z,21.95
2018-04-23T09:50:54.923Z,17.29
2018-04-23T09:56:45.791Z,20.45
2018-04-23T10:02:36.567Z,19.79
2018-04-23T10:08:27.448Z,18.95
2018-04-23T10:14:18.324Z,14.95
2018-04-23T10:20:09.066Z,20.18
2018-04-23T10:25:59.938Z,16.23
2018-04-23T10:31:50.775Z,18.42
2018-04-23T10:37:41.679Z,15.85
2018-04-23T10:43:32.496Z,19.47
2018-04-23T10:49:23.396Z,15.78
2018-04-23T10:55:14.268Z,16.47
2018-04-23T11:01:05.083Z,15.92
2018-04-23T11:06:55.959Z,18.14
2018-04-23T11:12:46.822Z,17.04
2018-04-23T11:18:37.693Z,18.27
2018-04-23T11:24:28.593Z,18.75
2018-04-23T11:30:19.404Z,22.48
2018-04-23T11:36:10.247Z,21.16
2018-04-23T11:42:01.123Z,25.33
2018-04-23T11:47:51.985Z,18.74
2018-04-23T11:53:42.864Z,21.4
2018-04-23T11:59:33.744Z,19.23
2018-04-23T12:05:24.567Z,21.1
2018-04-23T12:11:15.429Z,24.11
2018-04-23T12:17:06.276Z,16.44
2018-04-23T12:22:57.161Z,20.71
2018-04-23T12:28:48.045Z,17.13
2018-04-23T12:34:38.959Z,22
2018-04-23T12:40:29.796Z,13.91
2018-04-23T12:46:20.676Z,19.07
2018-04-23T12:52:11.533Z,15.31
2018-04-23T12:58:02.433Z,16.04
2018-04-23T13:03:53.320Z,17.98
2018-04-23T13:09:44.236Z,14.84
2018-04-23T13:15:35.060Z,20.07
2018-04-23T13:21:25.939Z,22.85
2018-04-23T13:27:16.783Z,12.28
2018-04-23T13:33:07.705Z,10.16
2018-04-23T13:38:58.522Z,12.88
2018-04-23T13:44:49.386Z,13.55
2018-04-23T13:50:40.269Z,9.67
2018-04-23T13:56:31.148Z,11.96
2018-04-23T14:02:22.061Z,17.54
2018-04-23T14:08:12.892Z,12.9
2018-04-23T14:14:03.784Z,11.31
2018-04-23T14:19:54.665Z,7.12
2018-04-23T14:25:45.561Z,8.74
2018-04-23T14:31:36.426Z,11.8
2018-04-23T14:37:27.303Z,8.48
2018-04-23T14:43:18.194Z,8.99
2018-04-23T14:49:09.074Z,6.03
2018-04-23T14:54:59.913Z,8.73
2018-04-23T15:00:50.785Z,12.79
2018-04-23T15:06:41.680Z,9.46
2018-04-23T15:12:32.549Z,10.55
2018-04-23T15:18:23.436Z,6.43
2018-04-23T15:24:14.343Z,9.46
2018-04-23T15:30:05.207Z,9.74
2018-04-23T15:35:56.074Z,6.03
2018-04-23T15:41:46.930Z,6.11
2018-04-23T15:47:37.804Z,8.84
2018-04-23T15:53:28.680Z,10.66
2018-04-23T15:59:19.538Z,11.13
2018-04-23T16:05:10.408Z,8.59
2018-04-23T16:11:01.284Z,12.88
2018-04-23T16:16:52.159Z,13.37
2018-04-23T16:22:43.014Z,10.95
2018-04-23T16:28:33.859Z,12.7
2018-04-23T16:34:24.671Z,10.43
2018-04-23T16:40:15.481Z,11.69
2018-04-23T16:46:06.311Z,14.67
2018-04-23T16:51:57.139Z,11.76
2018-04-23T16:57:47.958Z,17.17
2018-04-23T17:03:38.856Z,14.49
2018-04-23T17:09:29.648Z,11.34
2018-04-23T17:15:20.447Z,14.94
2018-04-23T17:21:11.365Z,9.97
2018-04-23T17:27:02.262Z,13.44
2018-04-23T17:32:53.167Z,13.55
2018-04-23T17:38:44.118Z,11.26
2018-04-23T17:44:35.077Z,14.04
2018-04-23T17:50:25.917Z,13.71
2018-04-23T17:56:16.818Z,13.85
2018-04-23T18:02:07.740Z,13.82
2018-04-23T18:07:58.648Z,15.27
2018-04-23T18:13:49.519Z,10.38
2018-04-23T18:19:40.418Z,15.16
2018-04-23T18:25:31.309Z,13.7
2018-04-23T18:31:22.317Z,18.15
2018-04-23T18:37:13.134Z,20.06
2018-04-23T18:43:04.016Z,12.07
2018-04-23T18:48:54.883Z,12.22
2018-04-23T18:54:45.769Z,22.74
2018-04-23T19:00:36.630Z,18.61
2018-04-23T19:06:27.509Z,13.77
2018-04-23T19:12:18.392Z,18.54
2018-04-23T19:18:09.269Z,14.41
2018-04-23T19:24:00.174Z,16.24
2018-04-23T19:29:51.022Z,14.51
2018-04-23T19:35:41.926Z,13.14
2018-04-23T19:41:32.831Z,18.58
2018-04-23T19:47:23.742Z,16.65
2018-04-23T19:53:14.545Z,24.05
2018-04-23T19:59:05.421Z,18.78
2018-04-23T20:04:56.349Z,17.17
2018-04-23T20:10:47.163Z,20.24
2018-04-23T20:16:38.040Z,14.87
2018-04-23T20:22:28.897Z,17.44
2018-04-23T20:28:19.763Z,16.2
2018-04-23T20:34:10.646Z,17.19
2018-04-23T20:40:01.495Z,12.55
2018-04-23T20:45:52.364Z,12.98
2018-04-23T20:51:43.281Z,19.48
2018-04-23T20:57:34.110Z,15.35
2018-04-23T21:03:24.950Z,16.5
2018-04-23T21:09:15.829Z,17.77
2018-04-23T21:15:06.701Z,10.68
2018-04-23T21:20:57.521Z,14.19
2018-04-23T21:26:48.476Z,16.73
2018-04-23T21:32:39.345Z,21.24
2018-04-23T21:32:39.379Z,21.24
2018-04-23T21:38:30.090Z,14.8
2018-04-23T21:44:20.979Z,13.46
2018-04-23T21:50:11.830Z,17.38
2018-04-23T21:56:02.674Z,17.79
2018-04-23T22:01:53.556Z,20.03
2018-04-23T22:07:44.455Z,15.29
2018-04-23T22:13:35.249Z,18.95
2018-04-23T22:19:26.116Z,19.48
2018-04-23T22:25:16.985Z,16.65
2018-04-23T22:31:07.763Z,16.35
2018-04-23T22:36:58.619Z,22.58
2018-04-23T22:42:49.494Z,23.46
2018-04-23T22:48:40.342Z,22.94
2018-04-23T22:54:31.188Z,18.94
2018-04-23T23:00:22.051Z,21.89
2018-04-23T23:06:12.856Z,18.24
2018-04-23T23:12:03.713Z,21.66
2018-04-23T23:17:54.577Z,21.96
2018-04-23T23:23:45.420Z,20.88
2018-04-23T23:29:36.255Z,22.84
2018-04-23T23:35:27.071Z,16.46
2018-04-23T23:41:17.958Z,22.62
2018-04-23T23:47:08.815Z,19
2018-04-23T23:52:59.616Z,14.19
2018-04-23T23:58:50.483Z,25.02
